Beecher City, Illinois
Current Conditions -  °F | °C
As of 2:15 AM on Sunday 21 Dec 2014 (Local Time) from K1H2 Reporting Station
Overcast Overcast  
Wind Chill: -3°   Ceiling: 2700
Heat Index:   Visibility: 7mi
Dew Point: -3°   Wind: 6mph
Humidity: 79%   Direction: 110°ESE
Pressure: 30.29"   Gusts: NA
Location:  39.19°N, 88.79°W
Report Text: K1H2 210815Z AUTO 11005KT 7SM OVC027 00/M03 A3029 RMK AO2 T00031030
Loading
Personal Weather Stations






























Interactive Weather Map New forecast layout! Learn more

10-Day Weather Forecast

Advertisements
Track Severe Weather on mobile